createdAt,value
2023-03-24T06:03:40.501Z,12.20
2023-03-24T06:13:50.637Z,11.80
2023-03-24T06:18:56.083Z,12.20
2023-03-24T06:24:04.443Z,11.40
2023-03-24T06:29:08.548Z,12.20
2023-03-24T06:34:14.854Z,12.20
2023-03-24T06:39:21.142Z,12.20
2023-03-24T06:44:25.155Z,12.30
2023-03-24T06:49:30.222Z,12.30
2023-03-24T06:54:33.873Z,12.40
2023-03-24T06:59:38.245Z,12.50
2023-03-24T07:04:43.906Z,12.60
2023-03-24T07:09:48.110Z,12.70
2023-03-24T07:14:52.065Z,12.80
2023-03-24T07:19:57.009Z,12.80
2023-03-24T07:25:04.834Z,12.90
2023-03-24T07:30:10.874Z,12.90
2023-03-24T07:35:16.757Z,13.00
2023-03-24T07:40:20.489Z,13.10
2023-03-24T07:45:24.153Z,13.20
2023-03-24T07:50:32.777Z,13.40
2023-03-24T07:55:38.255Z,13.40
2023-03-24T08:00:43.240Z,13.50
2023-03-24T08:05:51.114Z,13.50
2023-03-24T08:10:54.935Z,13.60
2023-03-24T08:15:58.633Z,13.70
2023-03-24T08:21:03.577Z,13.80
2023-03-24T08:26:10.727Z,13.90
2023-03-24T08:31:14.431Z,13.90
2023-03-24T08:36:19.464Z,14.00
2023-03-24T08:41:34.993Z,14.10
2023-03-24T08:46:38.758Z,14.20
2023-03-24T08:51:44.301Z,14.30
2023-03-24T08:56:47.955Z,14.40
2023-03-24T09:01:51.894Z,14.60
2023-03-24T09:07:02.822Z,14.70
2023-03-24T09:12:07.188Z,15.00
2023-03-24T09:17:10.904Z,15.20
2023-03-24T09:22:15.982Z,15.50
2023-03-24T09:27:19.763Z,15.60
2023-03-24T09:32:23.392Z,15.50
2023-03-24T09:37:30.313Z,15.40
2023-03-24T09:42:36.946Z,15.50
2023-03-24T09:47:43.792Z,16.00
2023-03-24T09:52:52.881Z,16.20
2023-03-24T09:58:00.253Z,16.40
2023-03-24T10:03:15.638Z,16.60
2023-03-24T10:08:26.988Z,16.40
2023-03-24T10:13:44.852Z,17.10
2023-03-24T10:18:58.123Z,17.10
2023-03-24T10:24:12.486Z,17.20
2023-03-24T10:29:23.349Z,17.30
2023-03-24T10:34:30.891Z,17.60
2023-03-24T10:39:44.338Z,17.30
2023-03-24T10:44:51.203Z,16.60
2023-03-24T10:49:57.841Z,16.00
2023-03-24T10:55:06.559Z,15.40
2023-03-24T11:00:19.634Z,15.00
2023-03-24T11:05:29.907Z,14.90
2023-03-24T11:10:35.118Z,14.60
2023-03-24T11:15:38.758Z,14.40
2023-03-24T11:20:46.121Z,14.60
2023-03-24T11:26:03.198Z,14.90
2023-03-24T11:31:09.259Z,15.00
2023-03-24T11:36:40.113Z,15.30
2023-03-24T11:41:52.066Z,15.40
2023-03-24T11:46:58.577Z,15.40
2023-03-24T11:52:03.649Z,15.20
2023-03-24T11:57:12.782Z,15.30
2023-03-24T12:02:25.458Z,15.50
2023-03-24T12:08:14.839Z,15.50
2023-03-24T12:13:33.118Z,15.20
2023-03-24T12:18:48.082Z,15.00
2023-03-24T12:23:59.200Z,15.10
2023-03-24T12:29:19.501Z,15.20
2023-03-24T12:34:42.482Z,15.00
2023-03-24T12:39:53.543Z,14.40
2023-03-24T12:45:17.299Z,14.50
2023-03-24T12:50:31.721Z,15.20
2023-03-24T12:55:40.957Z,15.50
2023-03-24T13:00:52.672Z,15.60
2023-03-24T13:06:07.276Z,15.90
2023-03-24T13:11:32.902Z,16.40
2023-03-24T13:16:40.500Z,16.90
2023-03-24T13:21:45.128Z,17.20
2023-03-24T13:26:56.817Z,17.30
2023-03-24T13:32:06.121Z,17.30
2023-03-24T13:37:15.268Z,17.30
2023-03-24T13:42:32.529Z,17.30
2023-03-24T13:48:04.505Z,17.00
2023-03-24T13:53:14.925Z,17.30
2023-03-24T13:58:22.757Z,17.90
2023-03-24T14:03:36.752Z,17.60
2023-03-24T14:08:55.777Z,17.10
2023-03-24T14:14:07.913Z,16.80
2023-03-24T14:19:25.122Z,16.20
2023-03-24T14:24:32.982Z,15.20
2023-03-24T14:29:43.247Z,14.30
2023-03-24T14:35:00.239Z,14.40
2023-03-24T14:40:04.208Z,14.50
2023-03-24T14:45:33.082Z,14.20
2023-03-24T14:50:38.762Z,13.60
2023-03-24T14:55:42.730Z,12.90
2023-03-24T15:01:05.970Z,12.40
2023-03-24T15:06:17.547Z,12.30
2023-03-24T15:11:24.335Z,12.30
2023-03-24T15:16:30.728Z,12.50
2023-03-24T15:21:37.417Z,12.60
2023-03-24T15:26:41.079Z,12.70
2023-03-24T15:31:44.962Z,12.90
2023-03-24T15:36:55.647Z,13.00
2023-03-24T15:41:59.394Z,13.10
2023-03-24T15:47:05.042Z,13.10
2023-03-24T15:52:26.876Z,13.20
2023-03-24T15:57:38.455Z,13.20
2023-03-24T16:02:46.688Z,13.20
2023-03-24T16:07:59.837Z,13.30
2023-03-24T16:13:15.521Z,12.90
2023-03-24T16:18:24.654Z,13.40
2023-03-24T16:23:29.880Z,13.50
2023-03-24T16:28:34.361Z,13.50
2023-03-24T16:33:37.678Z,13.50
2023-03-24T16:38:42.681Z,13.60
2023-03-24T16:43:47.027Z,13.50
2023-03-24T16:48:50.834Z,13.30
2023-03-24T16:53:55.880Z,13.00
2023-03-24T16:58:59.754Z,12.80
2023-03-24T17:04:05.264Z,12.60
2023-03-24T17:09:10.806Z,12.40
2023-03-24T17:14:14.466Z,12.20
2023-03-24T17:19:20.063Z,11.90
2023-03-24T17:24:25.568Z,11.80
2023-03-24T17:29:29.293Z,11.70
2023-03-24T17:34:33.046Z,11.60
2023-03-24T17:39:38.310Z,11.60
2023-03-24T17:44:41.856Z,11.60
2023-03-24T17:49:45.687Z,11.60
2023-03-24T17:54:50.791Z,11.60
2023-03-24T17:59:54.412Z,10.00
2023-03-24T18:04:58.778Z,11.60
2023-03-24T18:10:03.791Z,11.50
2023-03-24T18:15:08.622Z,11.50
2023-03-24T18:20:14.786Z,11.60
2023-03-24T18:25:19.788Z,11.60
2023-03-24T18:30:23.548Z,11.60
2023-03-24T18:35:28.029Z,11.70
2023-03-24T18:40:33.217Z,11.60
2023-03-24T18:45:36.838Z,11.60
2023-03-24T18:50:41.497Z,11.50
2023-03-24T18:55:47.939Z,11.50
2023-03-24T19:00:53.795Z,11.40
2023-03-24T19:06:02.177Z,11.40
2023-03-24T19:11:07.444Z,11.30
2023-03-24T19:16:12.811Z,11.20
2023-03-24T19:21:16.982Z,11.20
2023-03-24T19:26:22.562Z,11.10
2023-03-24T19:31:26.145Z,11.10
2023-03-24T19:36:29.861Z,11.10
2023-03-24T19:41:34.796Z,11.10
2023-03-24T19:46:38.418Z,11.10
2023-03-24T19:51:42.096Z,11.00
2023-03-24T19:56:47.064Z,11.00
2023-03-24T20:01:50.675Z,11.00
2023-03-24T20:06:54.396Z,11.00
2023-03-24T20:11:59.333Z,11.00
2023-03-24T20:17:03.007Z,11.00
2023-03-24T20:22:06.537Z,10.90
2023-03-24T20:27:11.893Z,10.90
2023-03-24T20:32:17.147Z,10.90
2023-03-24T20:37:20.739Z,10.90
2023-03-24T20:42:27.808Z,10.90
2023-03-24T20:47:31.494Z,11.00
2023-03-24T20:52:35.168Z,11.00
2023-03-24T20:57:40.154Z,11.10
2023-03-24T21:02:44.185Z,11.10
2023-03-24T21:07:48.474Z,11.20
2023-03-24T21:12:54.809Z,11.20
2023-03-24T21:17:59.185Z,11.30
2023-03-24T21:23:04.428Z,11.40
2023-03-24T21:28:10.054Z,11.40
2023-03-24T21:33:14.600Z,11.50
2023-03-24T21:38:18.809Z,11.50
2023-03-24T21:43:23.747Z,11.60
2023-03-24T21:48:28.029Z,11.70
2023-03-24T21:53:31.997Z,11.80
2023-03-24T21:58:38.009Z,11.80
2023-03-24T22:03:41.595Z,11.80
2023-03-24T22:08:48.837Z,11.90
2023-03-24T22:13:53.879Z,11.90
2023-03-24T22:18:58.758Z,12.00
2023-03-24T22:24:02.326Z,12.00
2023-03-24T22:29:07.408Z,12.10
2023-03-24T22:34:11.082Z,12.10
2023-03-24T22:39:14.973Z,12.10
2023-03-24T22:44:20.255Z,12.20
2023-03-24T22:49:23.865Z,12.20
2023-03-24T22:54:27.618Z,12.20
2023-03-24T22:59:33.267Z,12.20
2023-03-24T23:04:37.144Z,12.10
2023-03-24T23:09:43.138Z,12.00
2023-03-24T23:14:48.189Z,11.90
2023-03-24T23:19:52.137Z,11.80
2023-03-24T23:25:00.732Z,11.60
